createdAt,value
2023-03-17T00:01:14.734Z,7.53
2023-03-17T00:03:42.886Z,7.49
2023-03-17T00:06:19.231Z,7.50
2023-03-17T00:08:46.377Z,7.50
2023-03-17T00:11:15.102Z,7.47
2023-03-17T00:13:43.593Z,7.39
2023-03-17T00:16:18.692Z,7.36
2023-03-17T00:18:45.877Z,7.37
2023-03-17T00:21:15.129Z,7.33
2023-03-17T00:23:45.932Z,7.32
2023-03-17T00:26:12.697Z,7.31
2023-03-17T00:28:40.273Z,7.24
2023-03-17T00:31:14.462Z,7.16
2023-03-17T00:33:41.697Z,7.13
2023-03-17T00:36:14.188Z,7.13
2023-03-17T00:38:40.942Z,7.09
2023-03-17T00:41:10.027Z,7.11
2023-03-17T00:43:36.814Z,7.03
2023-03-17T00:46:12.095Z,7.01
2023-03-17T00:48:39.188Z,7.02
2023-03-17T00:51:06.064Z,6.95
2023-03-17T00:53:32.928Z,6.95
2023-03-17T00:55:59.801Z,6.89
2023-03-17T00:58:31.769Z,6.89
2023-03-17T01:00:59.799Z,6.85
2023-03-17T01:03:28.030Z,6.85
2023-03-17T01:05:57.774Z,6.69
2023-03-17T01:08:25.860Z,6.69
2023-03-17T01:10:52.683Z,6.58
2023-03-17T01:13:19.484Z,6.65
2023-03-17T01:15:48.278Z,6.70
2023-03-17T01:18:18.084Z,6.70
2023-03-17T01:20:45.493Z,6.65
2023-03-17T01:23:12.371Z,6.58
2023-03-17T01:25:41.447Z,6.59
2023-03-17T01:28:10.799Z,6.61
2023-03-17T01:30:40.545Z,6.59
2023-03-17T01:33:09.604Z,6.59
2023-03-17T01:35:38.209Z,6.55
2023-03-17T01:38:05.832Z,6.52
2023-03-17T01:40:35.615Z,6.43
2023-03-17T01:43:11.166Z,6.46
2023-03-17T01:46:16.138Z,6.48
2023-03-17T01:48:46.933Z,6.49
2023-03-17T01:51:21.116Z,6.44
2023-03-17T01:53:52.882Z,6.40
2023-03-17T01:56:20.705Z,6.34
2023-03-17T01:58:53.001Z,6.36
2023-03-17T02:01:26.472Z,6.30
2023-03-17T02:03:55.198Z,6.34
2023-03-17T02:06:22.189Z,6.35
2023-03-17T02:08:48.797Z,6.25
2023-03-17T02:11:15.645Z,6.24
2023-03-17T02:13:44.653Z,6.07
2023-03-17T02:16:16.177Z,6.14
2023-03-17T02:18:43.943Z,6.18
2023-03-17T02:21:29.210Z,6.17
2023-03-17T02:23:56.858Z,6.14
2023-03-17T02:26:26.059Z,6.18
2023-03-17T02:28:53.796Z,6.13
2023-03-17T02:31:21.145Z,6.14
2023-03-17T02:33:47.967Z,6.22
2023-03-17T02:36:14.780Z,6.22
2023-03-17T02:38:44.417Z,6.12
2023-03-17T02:41:11.385Z,6.14
2023-03-17T02:43:38.187Z,6.12
2023-03-17T02:46:05.772Z,6.10
2023-03-17T02:48:34.319Z,6.11
2023-03-17T02:51:01.063Z,6.12
2023-03-17T02:53:27.658Z,6.02
2023-03-17T02:55:54.364Z,5.98
2023-03-17T02:58:21.015Z,5.87
2023-03-17T03:00:48.864Z,5.84
2023-03-17T03:03:16.172Z,5.82
2023-03-17T03:05:42.800Z,5.77
2023-03-17T03:08:09.693Z,5.82
2023-03-17T03:10:36.450Z,5.85
2023-03-17T03:13:03.275Z,5.83
2023-03-17T03:15:29.987Z,5.80
2023-03-17T03:17:56.647Z,5.79
2023-03-17T03:20:23.438Z,5.79
2023-03-17T03:22:50.599Z,5.76
2023-03-17T03:25:17.877Z,5.69
2023-03-17T03:27:44.769Z,5.64
2023-03-17T03:30:12.022Z,5.59
2023-03-17T03:32:38.680Z,5.50
2023-03-17T03:35:05.914Z,5.55
2023-03-17T03:37:32.594Z,5.53
2023-03-17T03:39:59.318Z,5.52
2023-03-17T03:42:26.640Z,5.54
2023-03-17T03:44:53.286Z,5.48
2023-03-17T03:47:19.867Z,5.52
2023-03-17T03:49:46.614Z,5.47
2023-03-17T03:52:13.237Z,5.48
2023-03-17T03:54:39.917Z,5.44
2023-03-17T03:57:06.530Z,5.37
2023-03-17T03:59:33.182Z,5.39
2023-03-17T04:01:59.775Z,5.34
2023-03-17T04:04:26.543Z,5.43
2023-03-17T04:06:53.179Z,5.38
2023-03-17T04:09:20.003Z,5.32
2023-03-17T04:11:46.878Z,5.28
2023-03-17T04:14:14.024Z,5.29
2023-03-17T04:16:43.344Z,5.30
2023-03-17T04:19:11.255Z,5.31
2023-03-17T04:21:37.888Z,5.23
2023-03-17T04:24:05.200Z,5.24
2023-03-17T04:26:32.472Z,5.26
2023-03-17T04:28:59.265Z,5.23
2023-03-17T04:31:26.329Z,5.20
2023-03-17T04:33:53.467Z,5.14
2023-03-17T04:36:23.866Z,5.17
2023-03-17T04:38:50.894Z,5.14
2023-03-17T04:41:17.746Z,5.11
2023-03-17T04:43:44.855Z,5.03
2023-03-17T04:46:11.744Z,4.98
2023-03-17T04:48:38.485Z,4.93
2023-03-17T04:51:06.332Z,4.96
2023-03-17T04:53:33.147Z,4.95
2023-03-17T04:55:59.935Z,4.90
2023-03-17T04:58:30.858Z,4.99
2023-03-17T05:00:58.779Z,5.00
2023-03-17T05:03:27.942Z,4.94
2023-03-17T05:05:56.376Z,4.88
2023-03-17T05:08:23.606Z,4.88
2023-03-17T05:10:51.220Z,4.87
2023-03-17T05:13:18.870Z,4.86
2023-03-17T05:15:52.723Z,4.88
2023-03-17T05:18:23.780Z,4.90
2023-03-17T05:20:50.639Z,4.92
2023-03-17T05:23:17.455Z,4.93
2023-03-17T05:25:44.297Z,4.88
2023-03-17T05:28:10.902Z,4.80
2023-03-17T05:30:37.862Z,4.77
2023-03-17T05:33:05.144Z,4.79
2023-03-17T05:35:32.597Z,4.72
2023-03-17T05:37:59.393Z,4.73
2023-03-17T05:40:26.665Z,4.61
2023-03-17T05:42:53.679Z,4.71
2023-03-17T05:45:20.458Z,4.67
2023-03-17T05:47:47.447Z,4.67
2023-03-17T05:50:15.576Z,4.67
2023-03-17T05:52:42.294Z,4.64
2023-03-17T05:55:09.528Z,4.68
2023-03-17T05:57:36.601Z,4.74
2023-03-17T06:00:05.857Z,4.69
2023-03-17T06:02:32.668Z,4.69
2023-03-17T06:04:59.373Z,4.67
2023-03-17T06:07:28.399Z,4.71
2023-03-17T06:09:58.060Z,4.76
2023-03-17T06:12:24.786Z,4.77
2023-03-17T06:14:51.477Z,4.78
2023-03-17T06:17:18.301Z,4.73
2023-03-17T06:19:45.068Z,4.62
2023-03-17T06:22:12.124Z,4.78
2023-03-17T06:24:39.100Z,4.80
2023-03-17T06:27:05.823Z,4.83
2023-03-17T06:29:32.531Z,4.81
2023-03-17T06:32:09.256Z,4.88
2023-03-17T06:34:44.748Z,4.85
2023-03-17T06:37:11.668Z,4.91
2023-03-17T06:39:39.188Z,4.94
2023-03-17T06:42:06.376Z,4.98
2023-03-17T06:44:33.364Z,5.04
2023-03-17T06:47:00.140Z,5.12
2023-03-17T06:49:27.138Z,5.23
2023-03-17T06:51:54.071Z,5.35
2023-03-17T06:54:23.890Z,5.45
2023-03-17T06:56:50.902Z,5.47
2023-03-17T06:59:17.795Z,5.57
2023-03-17T07:01:45.449Z,5.67
2023-03-17T07:04:12.727Z,5.76
2023-03-17T07:06:39.335Z,5.85
2023-03-17T07:09:07.663Z,5.90
2023-03-17T07:11:34.351Z,6.01
2023-03-17T07:14:01.412Z,6.03
2023-03-17T07:16:28.833Z,6.05
2023-03-17T07:18:55.662Z,6.06
2023-03-17T07:21:22.275Z,6.09
2023-03-17T07:23:48.951Z,6.11
2023-03-17T07:26:15.636Z,6.19
2023-03-17T07:28:42.405Z,6.28
2023-03-17T07:31:10.501Z,6.30
2023-03-17T07:33:37.431Z,6.32
2023-03-17T07:36:07.344Z,6.34
2023-03-17T07:38:34.210Z,6.39
2023-03-17T07:41:01.000Z,6.40
2023-03-17T07:43:28.259Z,6.43
2023-03-17T07:45:54.892Z,6.51
2023-03-17T07:48:21.735Z,6.56
2023-03-17T07:50:48.384Z,6.64
2023-03-17T07:53:15.050Z,6.69
2023-03-17T07:55:42.641Z,6.73
2023-03-17T07:58:09.753Z,6.77
2023-03-17T08:00:36.539Z,6.80
2023-03-17T08:03:10.154Z,6.84
2023-03-17T08:05:37.675Z,6.91
2023-03-17T08:08:06.316Z,6.97
2023-03-17T08:10:33.350Z,7.00
2023-03-17T08:13:00.832Z,6.99
2023-03-17T08:15:27.649Z,7.07
2023-03-17T08:17:54.270Z,7.10
2023-03-17T08:20:21.833Z,7.11
2023-03-17T08:22:48.524Z,7.18
2023-03-17T08:25:15.292Z,7.18
2023-03-17T08:27:42.605Z,7.15
2023-03-17T08:30:10.126Z,7.22
2023-03-17T08:32:36.931Z,7.31
2023-03-17T08:35:06.339Z,7.41
2023-03-17T08:37:33.328Z,7.42
2023-03-17T08:40:01.002Z,7.53
2023-03-17T08:42:27.693Z,7.55
2023-03-17T08:44:54.571Z,7.65
2023-03-17T08:47:21.706Z,7.64
2023-03-17T08:49:48.518Z,7.65
2023-03-17T08:52:16.230Z,7.70
2023-03-17T08:54:43.218Z,7.79
2023-03-17T08:57:09.842Z,7.91
2023-03-17T08:59:37.234Z,7.87
2023-03-17T09:02:04.004Z,8.02
2023-03-17T09:04:30.636Z,7.99
2023-03-17T09:07:06.166Z,8.17
2023-03-17T09:09:37.502Z,8.35
2023-03-17T09:12:06.351Z,8.39
2023-03-17T09:14:42.888Z,8.47
2023-03-17T09:17:11.262Z,8.50
2023-03-17T09:19:38.809Z,8.52
2023-03-17T09:22:05.624Z,8.51
2023-03-17T09:24:32.264Z,8.59
2023-03-17T09:27:01.257Z,8.66
2023-03-17T09:29:27.974Z,8.67
2023-03-17T09:31:57.272Z,8.70
2023-03-17T09:34:25.157Z,8.74
2023-03-17T09:36:54.233Z,8.89
2023-03-17T09:39:23.127Z,8.99
2023-03-17T09:42:12.455Z,9.05
2023-03-17T09:44:51.172Z,9.19
2023-03-17T09:47:26.611Z,9.23
2023-03-17T09:50:08.388Z,9.39
2023-03-17T09:52:36.315Z,9.54
2023-03-17T09:55:08.502Z,9.54
2023-03-17T09:57:36.991Z,9.73
2023-03-17T10:00:19.155Z,9.71
2023-03-17T10:02:47.183Z,9.75
2023-03-17T10:05:22.038Z,9.92
2023-03-17T10:08:06.320Z,9.97
2023-03-17T10:10:52.108Z,10.06
2023-03-17T10:13:46.957Z,9.95
2023-03-17T10:16:18.588Z,10.11
2023-03-17T10:18:54.117Z,10.09
2023-03-17T10:21:31.917Z,10.26
2023-03-17T10:23:59.677Z,10.21
2023-03-17T10:26:33.114Z,10.23
2023-03-17T10:29:04.104Z,10.27
2023-03-17T10:31:34.712Z,10.30
2023-03-17T10:34:13.743Z,10.34
2023-03-17T10:36:44.999Z,10.45
2023-03-17T10:39:15.200Z,10.63
2023-03-17T10:41:59.714Z,10.58
2023-03-17T10:44:38.572Z,10.74
2023-03-17T10:47:05.509Z,10.82
2023-03-17T10:49:37.039Z,10.83
2023-03-17T10:52:08.143Z,10.83
2023-03-17T10:54:37.033Z,10.80
2023-03-17T10:57:09.388Z,10.73
2023-03-17T10:59:47.791Z,10.79
2023-03-17T11:02:20.214Z,10.86
2023-03-17T11:04:47.179Z,10.88
2023-03-17T11:07:27.168Z,10.97
2023-03-17T11:09:59.104Z,11.05
2023-03-17T11:12:44.059Z,11.13
2023-03-17T11:15:17.731Z,11.09
2023-03-17T11:17:53.551Z,11.23
2023-03-17T11:20:27.629Z,11.12
2023-03-17T11:23:06.893Z,11.23
2023-03-17T11:25:41.174Z,11.41
2023-03-17T11:28:20.782Z,11.36
2023-03-17T11:31:10.540Z,11.37
2023-03-17T11:33:40.222Z,11.38
2023-03-17T11:36:27.560Z,11.53
2023-03-17T11:39:09.901Z,11.66
2023-03-17T11:42:05.863Z,11.55
2023-03-17T11:44:54.253Z,11.58
2023-03-17T11:47:31.809Z,11.62
2023-03-17T11:50:22.187Z,11.87
2023-03-17T11:53:27.548Z,11.78
2023-03-17T11:56:02.891Z,11.75
2023-03-17T11:58:36.995Z,11.80
2023-03-17T12:01:09.149Z,11.89
2023-03-17T12:03:40.236Z,12.00
2023-03-17T12:06:15.537Z,12.11
2023-03-17T12:08:49.678Z,12.35
2023-03-17T12:11:31.813Z,12.56
2023-03-17T12:14:04.787Z,12.50
2023-03-17T12:16:46.883Z,12.36
2023-03-17T12:19:24.770Z,12.17
2023-03-17T12:22:00.875Z,12.04
2023-03-17T12:24:34.926Z,11.92
2023-03-17T12:27:12.730Z,12.01
2023-03-17T12:30:00.479Z,11.98
2023-03-17T12:32:44.186Z,11.92
2023-03-17T12:35:36.829Z,11.88
2023-03-17T12:38:27.795Z,11.93
2023-03-17T12:41:07.085Z,12.06
2023-03-17T12:43:54.251Z,12.43
2023-03-17T12:46:53.135Z,12.54
2023-03-17T12:49:39.332Z,12.53
2023-03-17T12:52:27.694Z,12.46
2023-03-17T12:55:02.526Z,12.35
2023-03-17T12:57:45.167Z,12.28
2023-03-17T13:00:36.941Z,12.29
2023-03-17T13:03:28.887Z,12.42
2023-03-17T13:06:06.574Z,12.67
2023-03-17T13:08:44.724Z,12.87
2023-03-17T13:11:19.909Z,13.26
2023-03-17T13:14:16.418Z,13.34
2023-03-17T13:16:48.519Z,13.32
2023-03-17T13:19:24.101Z,13.52
2023-03-17T13:21:59.609Z,13.39
2023-03-17T13:24:48.896Z,13.30
2023-03-17T13:27:35.732Z,13.30
2023-03-17T13:30:45.271Z,13.22
2023-03-17T13:33:16.488Z,13.12
2023-03-17T13:36:07.417Z,13.04
2023-03-17T13:38:36.852Z,12.85
2023-03-17T13:41:29.501Z,12.98
2023-03-17T13:44:12.969Z,13.14
2023-03-17T13:46:47.459Z,13.20
2023-03-17T13:49:23.275Z,13.38
2023-03-17T13:52:14.174Z,13.49
2023-03-17T13:55:02.557Z,13.65
2023-03-17T13:57:38.305Z,13.65
2023-03-17T14:00:27.990Z,13.66
2023-03-17T14:03:03.607Z,13.57
2023-03-17T14:05:35.579Z,13.62
2023-03-17T14:08:31.870Z,13.67
2023-03-17T14:11:01.671Z,13.80
2023-03-17T14:13:42.009Z,13.98
2023-03-17T14:16:21.383Z,14.03
2023-03-17T14:18:53.845Z,14.10
2023-03-17T14:21:29.976Z,14.02
2023-03-17T14:23:58.733Z,13.86
2023-03-17T14:26:28.739Z,13.76
2023-03-17T14:28:59.245Z,13.62
2023-03-17T14:31:28.194Z,13.57
2023-03-17T14:33:56.796Z,13.55
2023-03-17T14:36:24.476Z,13.56
2023-03-17T14:38:54.119Z,13.48
2023-03-17T14:41:23.430Z,13.35
2023-03-17T14:43:52.296Z,13.57
2023-03-17T14:46:25.775Z,13.62
2023-03-17T14:49:02.641Z,13.63
2023-03-17T14:51:37.731Z,13.72
2023-03-17T14:54:20.813Z,13.70
2023-03-17T14:56:51.596Z,13.68
2023-03-17T14:59:23.607Z,13.75
2023-03-17T15:01:55.371Z,13.51
2023-03-17T15:04:26.207Z,13.50
2023-03-17T15:06:58.370Z,13.35
2023-03-17T15:09:27.965Z,13.27
2023-03-17T15:12:07.205Z,13.13
2023-03-17T15:14:38.954Z,13.08
2023-03-17T15:17:17.050Z,13.08
2023-03-17T15:19:47.831Z,12.98
2023-03-17T15:22:31.187Z,12.87
2023-03-17T15:25:20.488Z,12.92
2023-03-17T15:27:48.239Z,12.92
2023-03-17T15:30:16.618Z,12.89
2023-03-17T15:32:43.461Z,12.85
2023-03-17T15:35:14.162Z,12.86
2023-03-17T15:37:41.728Z,12.84
2023-03-17T15:40:10.160Z,12.77
2023-03-17T15:42:39.565Z,12.73
2023-03-17T15:45:07.138Z,12.75
2023-03-17T15:47:37.057Z,12.74
2023-03-17T15:50:17.873Z,12.69
2023-03-17T15:52:45.841Z,12.69
2023-03-17T15:55:19.934Z,12.68
2023-03-17T15:57:54.777Z,12.62
2023-03-17T16:00:23.671Z,12.67
2023-03-17T16:02:57.266Z,12.63
2023-03-17T16:05:30.388Z,12.61
2023-03-17T16:07:57.420Z,12.66
2023-03-17T16:10:26.581Z,12.60
2023-03-17T16:12:54.040Z,12.54
2023-03-17T16:15:26.518Z,12.50
2023-03-17T16:17:58.375Z,12.52
2023-03-17T16:20:28.757Z,12.47
2023-03-17T16:22:58.564Z,12.48
2023-03-17T16:25:30.858Z,12.42
2023-03-17T16:27:59.486Z,12.43
2023-03-17T16:30:29.872Z,12.40
2023-03-17T16:33:02.785Z,12.36
2023-03-17T16:35:30.222Z,12.42
2023-03-17T16:37:57.210Z,12.42
2023-03-17T16:40:35.617Z,12.42
2023-03-17T16:43:12.898Z,12.38
2023-03-17T16:45:42.504Z,12.35
2023-03-17T16:48:13.263Z,12.29
2023-03-17T16:50:40.728Z,12.29
2023-03-17T16:53:07.842Z,12.27
2023-03-17T16:55:35.925Z,12.21
2023-03-17T16:58:32.907Z,12.18
2023-03-17T17:01:09.730Z,12.18
2023-03-17T17:03:37.935Z,12.07
2023-03-17T17:06:06.930Z,12.00
2023-03-17T17:08:33.699Z,11.98
2023-03-17T17:11:00.386Z,11.89
2023-03-17T17:13:27.146Z,11.81
2023-03-17T17:15:55.032Z,11.83
2023-03-17T17:18:24.537Z,11.76
2023-03-17T17:20:52.666Z,11.74
2023-03-17T17:23:25.944Z,11.70
2023-03-17T17:25:53.883Z,11.59
2023-03-17T17:28:23.290Z,11.57
2023-03-17T17:30:51.368Z,11.52
2023-03-17T17:33:19.319Z,11.39
2023-03-17T17:35:47.744Z,11.30
2023-03-17T17:38:26.310Z,11.28
2023-03-17T17:40:54.538Z,11.20
2023-03-17T17:43:21.657Z,11.12
2023-03-17T17:45:48.652Z,11.11
2023-03-17T17:48:22.377Z,11.10
2023-03-17T17:50:49.964Z,11.12
2023-03-17T17:53:17.995Z,11.08
2023-03-17T17:55:46.744Z,11.02
2023-03-17T17:58:19.288Z,11.01
2023-03-17T18:00:46.242Z,10.98
2023-03-17T18:03:13.068Z,10.93
2023-03-17T18:05:40.220Z,10.90
2023-03-17T18:08:07.592Z,10.91
2023-03-17T18:10:35.034Z,10.94
2023-03-17T18:13:01.965Z,10.94
2023-03-17T18:15:28.934Z,10.92
2023-03-17T18:17:56.214Z,10.89
2023-03-17T18:20:24.033Z,10.85
2023-03-17T18:22:51.163Z,10.83
2023-03-17T18:25:19.336Z,10.78
2023-03-17T18:27:47.462Z,10.70
2023-03-17T18:30:30.863Z,10.67
2023-03-17T18:33:07.706Z,10.62
2023-03-17T18:35:35.380Z,10.58
2023-03-17T18:38:02.347Z,10.54
2023-03-17T18:40:29.195Z,10.53
2023-03-17T18:42:55.989Z,10.51
2023-03-17T18:45:22.914Z,10.44
2023-03-17T18:47:49.591Z,10.41
2023-03-17T18:50:17.464Z,10.49
2023-03-17T18:52:44.942Z,10.41
2023-03-17T18:55:13.473Z,10.37
2023-03-17T18:57:43.901Z,10.31
2023-03-17T19:00:12.840Z,10.33
2023-03-17T19:02:39.572Z,10.27
2023-03-17T19:05:07.530Z,10.35
2023-03-17T19:07:34.907Z,10.26
2023-03-17T19:10:01.594Z,10.29
2023-03-17T19:12:28.206Z,10.24
2023-03-17T19:14:54.965Z,10.24
2023-03-17T19:17:21.905Z,10.23
2023-03-17T19:19:50.454Z,10.05
2023-03-17T19:22:17.134Z,9.93
2023-03-17T19:24:43.986Z,9.91
2023-03-17T19:27:10.619Z,9.88
2023-03-17T19:29:37.493Z,9.88
2023-03-17T19:32:04.323Z,9.85
2023-03-17T19:34:31.100Z,9.93
2023-03-17T19:36:57.881Z,9.94
2023-03-17T19:39:24.653Z,9.92
2023-03-17T19:41:54.997Z,9.96
2023-03-17T19:44:22.231Z,9.94
2023-03-17T19:46:49.486Z,9.96
2023-03-17T19:49:16.878Z,10.02
2023-03-17T19:51:43.959Z,9.98
2023-03-17T19:54:11.234Z,9.96
2023-03-17T19:56:38.755Z,9.96
2023-03-17T19:59:08.942Z,9.94
2023-03-17T20:01:37.875Z,9.83
2023-03-17T20:04:06.908Z,9.79
2023-03-17T20:06:34.717Z,9.76
2023-03-17T20:09:04.281Z,9.75
2023-03-17T20:11:34.503Z,9.70
2023-03-17T20:14:02.241Z,9.63
2023-03-17T20:16:32.767Z,9.62
2023-03-17T20:19:00.801Z,9.50
2023-03-17T20:21:27.684Z,9.43
2023-03-17T20:23:54.676Z,9.43
2023-03-17T20:26:21.437Z,9.39
2023-03-17T20:28:48.106Z,9.35
2023-03-17T20:31:22.785Z,9.39
2023-03-17T20:33:49.526Z,9.47
2023-03-17T20:36:16.271Z,9.43
2023-03-17T20:38:43.897Z,9.39
2023-03-17T20:41:13.722Z,9.39
2023-03-17T20:43:41.831Z,9.36
2023-03-17T20:46:15.692Z,9.34
2023-03-17T20:48:44.267Z,9.33
2023-03-17T20:51:18.910Z,9.29
2023-03-17T20:53:47.555Z,9.23
2023-03-17T20:56:15.784Z,9.15
2023-03-17T20:58:46.997Z,9.16
2023-03-17T21:01:15.288Z,9.16
2023-03-17T21:03:43.526Z,9.16
2023-03-17T21:06:10.663Z,9.11
2023-03-17T21:08:38.682Z,9.03
2023-03-17T21:11:08.023Z,9.01
2023-03-17T21:13:35.337Z,8.92
2023-03-17T21:16:02.537Z,8.84
2023-03-17T21:18:29.791Z,8.82
2023-03-17T21:20:56.919Z,8.77
2023-03-17T21:23:23.783Z,8.73
2023-03-17T21:25:56.018Z,8.66
2023-03-17T21:28:23.403Z,8.62
2023-03-17T21:30:50.194Z,8.60
2023-03-17T21:33:16.989Z,8.57
2023-03-17T21:35:43.673Z,8.52
2023-03-17T21:38:10.320Z,8.41
2023-03-17T21:40:37.097Z,8.42
2023-03-17T21:43:04.233Z,8.43
2023-03-17T21:45:31.339Z,8.40
2023-03-17T21:47:58.034Z,8.34
2023-03-17T21:50:24.821Z,8.28
2023-03-17T21:52:51.611Z,8.28
2023-03-17T21:55:18.684Z,8.25
2023-03-17T21:57:45.606Z,8.17
2023-03-17T22:00:13.116Z,8.17
2023-03-17T22:02:41.842Z,8.10
2023-03-17T22:05:10.567Z,8.07
2023-03-17T22:07:38.648Z,8.05
2023-03-17T22:10:07.837Z,8.07
2023-03-17T22:12:35.822Z,8.04
2023-03-17T22:15:04.146Z,7.99
2023-03-17T22:17:31.512Z,7.88
2023-03-17T22:19:58.389Z,7.89
2023-03-17T22:22:25.217Z,7.94
2023-03-17T22:24:51.976Z,7.92
2023-03-17T22:27:19.236Z,7.90
2023-03-17T22:29:46.695Z,7.85
2023-03-17T22:32:13.871Z,7.72
2023-03-17T22:34:40.575Z,7.82
2023-03-17T22:37:07.631Z,7.74
2023-03-17T22:39:34.646Z,7.73
2023-03-17T22:42:01.841Z,7.73
2023-03-17T22:44:28.414Z,7.71
2023-03-17T22:46:55.237Z,7.76
2023-03-17T22:49:21.951Z,7.73
2023-03-17T22:51:50.050Z,7.65
2023-03-17T22:54:18.556Z,7.66
2023-03-17T22:56:45.774Z,7.64
2023-03-17T22:59:12.526Z,7.63
2023-03-17T23:01:39.435Z,7.59
2023-03-17T23:04:07.018Z,7.52
2023-03-17T23:06:35.210Z,7.44
2023-03-17T23:09:02.736Z,7.44
2023-03-17T23:11:29.502Z,7.41
2023-03-17T23:13:56.442Z,7.39
2023-03-17T23:16:23.126Z,7.35
2023-03-17T23:18:49.890Z,7.36
2023-03-17T23:21:37.753Z,7.40
2023-03-17T23:24:07.737Z,7.35
2023-03-17T23:26:36.840Z,7.29
2023-03-17T23:29:08.481Z,7.29
2023-03-17T23:31:36.815Z,7.22
2023-03-17T23:34:04.701Z,7.25
2023-03-17T23:36:31.421Z,7.24
2023-03-17T23:38:58.075Z,7.22
2023-03-17T23:41:25.126Z,7.19
2023-03-17T23:43:52.051Z,7.25
2023-03-17T23:46:20.570Z,7.28
2023-03-17T23:48:49.181Z,7.22
2023-03-17T23:51:17.132Z,7.20
2023-03-17T23:53:45.310Z,7.18
2023-03-17T23:56:13.077Z,7.17
2023-03-17T23:58:42.490Z,7.11
